createdAt,value
2023-01-06T00:03:09.588Z,101647.78
2023-01-06T00:10:11.430Z,101642.72
2023-01-06T00:17:13.581Z,101643.47
2023-01-06T00:24:16.153Z,101634.38
2023-01-06T01:01:50.623Z,101634.69
2023-01-06T01:08:56.891Z,101626.94
2023-01-06T01:16:06.431Z,101615.53
2023-01-06T01:23:08.125Z,101628.66
2023-01-06T01:30:10.343Z,101612.41
2023-01-06T01:37:12.273Z,101603.75
2023-01-06T01:44:47.791Z,101607.13
2023-01-06T01:51:49.510Z,101612.41
2023-01-06T01:59:05.354Z,101611.31
2023-01-06T02:06:23.121Z,101598.03
2023-01-06T02:13:26.289Z,101596.97
2023-01-06T02:20:48.798Z,101591.06
2023-01-06T02:28:40.045Z,101586.47
2023-01-06T02:36:20.680Z,101578.22
2023-01-06T02:43:29.796Z,101574.00
2023-01-06T02:50:38.700Z,101566.84
2023-01-06T02:57:57.748Z,101563.88
2023-01-06T03:05:02.165Z,101561.06
2023-01-06T03:12:22.275Z,101548.47
2023-01-06T03:19:25.696Z,101537.25
2023-01-06T03:26:27.876Z,101541.25
2023-01-06T03:33:48.304Z,101531.09
2023-01-06T03:40:55.915Z,101525.75
2023-01-06T03:48:23.777Z,101501.03
2023-01-06T03:55:26.942Z,101508.09
2023-01-06T04:02:28.640Z,101499.22
2023-01-06T04:09:30.424Z,101489.69
2023-01-06T04:16:32.161Z,101489.97
2023-01-06T04:23:34.229Z,101484.91
2023-01-06T04:30:40.080Z,101486.13
2023-01-06T04:37:41.807Z,101469.97
2023-01-06T04:44:43.484Z,101452.28
2023-01-06T04:51:45.172Z,101446.97
2023-01-06T04:58:47.003Z,101435.06
2023-01-06T05:05:48.644Z,101417.63
2023-01-06T05:12:50.231Z,101411.03
2023-01-06T05:19:51.841Z,101397.97
2023-01-06T05:26:54.930Z,101398.75
2023-01-06T05:33:56.569Z,101395.38
2023-01-06T05:40:58.269Z,101384.16
2023-01-06T05:48:02.167Z,101370.06
2023-01-06T05:55:04.117Z,101362.81
2023-01-06T06:02:05.845Z,101351.78
2023-01-06T06:09:07.593Z,101358.53
2023-01-06T06:16:10.755Z,101354.00
2023-01-06T06:23:12.423Z,101348.81
2023-01-06T06:30:14.126Z,101346.53
2023-01-06T06:37:15.808Z,101332.06
2023-01-06T06:44:17.403Z,101320.72
2023-01-06T06:51:20.853Z,101311.19
2023-01-06T06:58:22.720Z,101306.81
2023-01-06T07:05:25.632Z,101305.53
2023-01-06T07:12:39.666Z,101290.34
2023-01-06T07:19:41.349Z,101300.06
2023-01-06T07:26:43.097Z,101284.63
2023-01-06T07:33:44.853Z,101294.84
2023-01-06T07:40:46.523Z,101294.00
2023-01-06T07:47:48.089Z,101295.44
2023-01-06T07:54:49.677Z,101299.84
2023-01-06T08:01:51.400Z,101310.63
2023-01-06T08:08:53.136Z,101300.03
2023-01-06T08:15:54.801Z,101276.19
2023-01-06T08:22:57.851Z,101274.13
2023-01-06T08:29:59.627Z,101286.72
2023-01-06T08:37:01.311Z,101250.53
2023-01-06T08:44:02.942Z,101254.91
2023-01-06T08:51:12.568Z,101256.00
2023-01-06T08:58:14.267Z,101226.06
2023-01-06T09:05:15.892Z,101215.47
2023-01-06T09:12:17.633Z,101220.91
2023-01-06T09:19:20.501Z,101223.38
2023-01-06T09:26:22.190Z,101235.19
2023-01-06T09:33:23.791Z,101213.75
2023-01-06T09:40:58.299Z,101201.78
2023-01-06T09:47:59.963Z,101193.00
2023-01-06T09:55:07.799Z,101186.13
2023-01-06T10:02:14.517Z,101155.63
2023-01-06T10:09:28.578Z,101161.25
2023-01-06T10:16:57.780Z,101146.00
2023-01-06T10:24:23.859Z,101122.38
2023-01-06T10:31:27.938Z,101125.69
2023-01-06T10:38:35.708Z,101113.06
2023-01-06T10:45:39.851Z,101093.84
2023-01-06T10:52:41.983Z,101097.31
2023-01-06T11:00:19.012Z,101082.56
2023-01-06T11:07:20.785Z,101073.44
2023-01-06T11:14:25.327Z,101068.69
2023-01-06T11:21:44.277Z,101072.09
2023-01-06T11:28:47.899Z,101044.13
2023-01-06T11:35:49.754Z,101045.94
2023-01-06T11:42:59.497Z,101031.34
2023-01-06T11:50:01.340Z,101025.00
2023-01-06T11:57:31.127Z,101031.63
2023-01-06T12:04:49.761Z,101031.97
2023-01-06T12:11:53.464Z,101006.91
2023-01-06T12:18:55.168Z,101002.72
2023-01-06T12:25:58.420Z,101002.72
2023-01-06T12:33:16.027Z,100992.41
2023-01-06T12:40:55.236Z,100976.25
2023-01-06T12:47:57.597Z,100976.88
2023-01-06T12:54:59.233Z,100972.50
2023-01-06T13:02:19.369Z,100972.50
2023-01-06T13:09:50.294Z,100963.47
2023-01-06T13:17:25.762Z,100970.09
2023-01-06T13:24:49.188Z,100979.47
2023-01-06T13:32:07.585Z,100983.41
2023-01-06T13:39:09.091Z,100980.72
2023-01-06T13:46:12.134Z,100976.44
2023-01-06T13:53:19.367Z,100986.19
2023-01-06T14:00:24.835Z,100997.59
2023-01-06T14:07:36.122Z,101004.78
2023-01-06T14:14:38.573Z,101021.09
2023-01-06T14:21:40.216Z,101025.09
2023-01-06T14:28:41.843Z,101023.53
2023-01-06T14:35:44.293Z,101022.53
2023-01-06T14:42:46.091Z,101037.38
2023-01-06T14:49:56.516Z,101043.91
2023-01-06T14:57:00.047Z,101043.72
2023-01-06T15:04:02.330Z,101047.75
2023-01-06T15:11:26.584Z,101053.84
2023-01-06T15:18:28.287Z,101060.97
2023-01-06T15:25:30.531Z,101071.00
2023-01-06T15:32:32.709Z,101067.38
2023-01-06T15:39:35.225Z,101085.34
2023-01-06T15:46:40.907Z,101105.19
2023-01-06T15:53:42.716Z,101120.94
2023-01-06T16:00:48.089Z,101123.94
2023-01-06T16:07:50.183Z,101119.09
2023-01-06T16:14:51.871Z,101134.88
2023-01-06T16:21:53.951Z,101131.25
2023-01-06T16:28:57.244Z,101155.25
2023-01-06T16:35:59.299Z,101158.81
2023-01-06T16:43:01.847Z,101168.19
2023-01-06T16:50:26.672Z,101167.38
2023-01-06T16:57:28.340Z,101164.84
2023-01-06T17:04:30.079Z,101178.25
2023-01-06T17:11:33.189Z,101193.72
2023-01-06T17:18:34.907Z,101197.06
2023-01-06T17:25:36.520Z,101205.84
2023-01-06T17:32:38.740Z,101222.78
2023-01-06T17:39:41.428Z,101237.06
2023-01-06T17:46:43.233Z,101240.41
2023-01-06T17:54:03.378Z,101252.13
2023-01-06T18:01:09.158Z,101248.34
2023-01-06T18:08:14.246Z,101256.97
2023-01-06T18:15:33.522Z,101265.00
2023-01-06T18:22:35.249Z,101273.38
2023-01-06T18:29:37.974Z,101273.31
2023-01-06T18:36:39.740Z,101270.88
2023-01-06T18:43:42.489Z,101269.91
2023-01-06T18:50:45.254Z,101268.00
2023-01-06T18:57:53.598Z,101274.34
2023-01-06T19:04:58.274Z,101281.22
2023-01-06T19:12:10.388Z,101279.00
2023-01-06T19:19:24.319Z,101297.88
2023-01-06T19:26:31.836Z,101293.84
2023-01-06T19:33:45.861Z,101299.53
2023-01-06T19:40:47.634Z,101300.13
2023-01-06T19:47:49.296Z,101311.47
2023-01-06T19:54:51.069Z,101318.22
2023-01-06T20:01:58.301Z,101319.44
2023-01-06T20:09:00.125Z,101315.75
2023-01-06T20:16:02.415Z,101327.38
2023-01-06T20:23:04.212Z,101330.38
2023-01-06T20:30:06.317Z,101344.00
2023-01-06T20:37:08.152Z,101344.94
2023-01-06T20:44:09.799Z,101344.41
2023-01-06T20:51:11.576Z,101347.28
2023-01-06T20:58:13.291Z,101356.63
2023-01-06T21:05:14.951Z,101357.59
2023-01-06T21:12:16.695Z,101361.16
2023-01-06T21:19:18.546Z,101364.44
2023-01-06T21:26:20.300Z,101372.28
2023-01-06T21:33:22.157Z,101363.56
2023-01-06T21:40:23.894Z,101371.41
2023-01-06T21:47:25.575Z,101366.09
2023-01-06T21:54:27.359Z,101372.78
2023-01-06T22:01:29.834Z,101374.50
2023-01-06T22:08:31.553Z,101383.03
2023-01-06T22:15:33.199Z,101391.13
2023-01-06T22:22:34.900Z,101388.56
2023-01-06T22:29:36.749Z,101381.50
2023-01-06T22:36:38.405Z,101388.94
2023-01-06T22:43:40.029Z,101400.78
2023-01-06T22:50:41.693Z,101395.03
2023-01-06T22:57:43.342Z,101397.41
2023-01-06T23:04:44.940Z,101376.47
2023-01-06T23:11:46.743Z,101378.75
2023-01-06T23:18:48.864Z,101374.44
2023-01-06T23:25:50.491Z,101378.03
2023-01-06T23:32:52.366Z,101379.38
2023-01-06T23:39:54.538Z,101385.03
2023-01-06T23:46:56.320Z,101389.25
2023-01-06T23:53:58.936Z,101384.56
